sensor_id;sensor_type;location;lat;lon;timestamp;pressure;altitude;pressure_sealevel;temperature;humidity
13029;BME280;6581;42.662;23.402;2023-05-10T00:01:46;95616.44;;;9.69;100.00
13029;BME280;6581;42.662;23.402;2023-05-10T00:04:13;95622.94;;;9.71;100.00
13029;BME280;6581;42.662;23.402;2023-05-10T00:06:40;95613.44;;;9.70;100.00
13029;BME280;6581;42.662;23.402;2023-05-10T00:09:07;95612.84;;;9.77;100.00
13029;BME280;6581;42.662;23.402;2023-05-10T00:11:34;95618.03;;;9.73;100.00
13029;BME280;6581;42.662;23.402;2023-05-10T00:14:02;95614.81;;;9.64;100.00
13029;BME280;6581;42.662;23.402;2023-05-10T00:16:30;95611.06;;;9.65;100.00
13029;BME280;6581;42.662;23.402;2023-05-10T00:18:57;95604.50;;;9.59;100.00
13029;BME280;6581;42.662;23.402;2023-05-10T00:21:26;95612.44;;;9.59;100.00
13029;BME280;6581;42.662;23.402;2023-05-10T00:23:54;95608.75;;;9.64;100.00
13029;BME280;6581;42.662;23.402;2023-05-10T00:26:21;95609.00;;;9.59;100.00
13029;BME280;6581;42.662;23.402;2023-05-10T00:28:51;95610.56;;;9.60;100.00
13029;BME280;6581;42.662;23.402;2023-05-10T00:31:18;95609.00;;;9.59;100.00
13029;BME280;6581;42.662;23.402;2023-05-10T00:33:47;95603.97;;;9.54;100.00
13029;BME280;6581;42.662;23.402;2023-05-10T00:36:14;95601.78;;;9.56;100.00
13029;BME280;6581;42.662;23.402;2023-05-10T00:38:41;95601.59;;;9.49;100.00
13029;BME280;6581;42.662;23.402;2023-05-10T00:41:08;95603.91;;;9.50;100.00
13029;BME280;6581;42.662;23.402;2023-05-10T00:43:37;95599.81;;;9.53;100.00
13029;BME280;6581;42.662;23.402;2023-05-10T00:46:05;95601.34;;;9.54;100.00
13029;BME280;6581;42.662;23.402;2023-05-10T00:48:32;95594.53;;;9.53;100.00
13029;BME280;6581;42.662;23.402;2023-05-10T00:51:02;95590.59;;;9.47;100.00
13029;BME280;6581;42.662;23.402;2023-05-10T00:53:31;95594.00;;;9.47;100.00
13029;BME280;6581;42.662;23.402;2023-05-10T00:55:58;95593.31;;;9.50;100.00
13029;BME280;6581;42.662;23.402;2023-05-10T00:58:27;95593.16;;;9.43;100.00
13029;BME280;6581;42.662;23.402;2023-05-10T01:00:56;95583.19;;;9.37;100.00
13029;BME280;6581;42.662;23.402;2023-05-10T01:03:24;95594.84;;;9.35;100.00
13029;BME280;6581;42.662;23.402;2023-05-10T01:05:52;95591.09;;;9.37;100.00
13029;BME280;6581;42.662;23.402;2023-05-10T01:08:20;95585.06;;;9.36;100.00
13029;BME280;6581;42.662;23.402;2023-05-10T01:10:49;95597.84;;;9.34;100.00
13029;BME280;6581;42.662;23.402;2023-05-10T01:13:23;95584.91;;;9.29;100.00
13029;BME280;6581;42.662;23.402;2023-05-10T01:15:54;95584.13;;;9.28;100.00
13029;BME280;6581;42.662;23.402;2023-05-10T01:18:48;95585.91;;;9.24;100.00
13029;BME280;6581;42.662;23.402;2023-05-10T01:21:21;95585.84;;;9.21;100.00
13029;BME280;6581;42.662;23.402;2023-05-10T01:27:30;95584.22;;;9.16;100.00
13029;BME280;6581;42.662;23.402;2023-05-10T01:30:35;95582.75;;;9.19;100.00
13029;BME280;6581;42.662;23.402;2023-05-10T01:33:15;95580.88;;;9.19;100.00
13029;BME280;6581;42.662;23.402;2023-05-10T01:35:49;95576.28;;;9.16;100.00
13029;BME280;6581;42.662;23.402;2023-05-10T01:38:24;95579.19;;;9.11;100.00
13029;BME280;6581;42.662;23.402;2023-05-10T01:41:03;95573.66;;;9.16;100.00
13029;BME280;6581;42.662;23.402;2023-05-10T01:43:39;95575.69;;;9.07;100.00
13029;BME280;6581;42.662;23.402;2023-05-10T01:46:14;95569.38;;;9.12;100.00
13029;BME280;6581;42.662;23.402;2023-05-10T01:48:47;95569.47;;;9.15;100.00
13029;BME280;6581;42.662;23.402;2023-05-10T01:51:18;95565.59;;;9.13;100.00
13029;BME280;6581;42.662;23.402;2023-05-10T01:53:48;95571.41;;;9.18;100.00
13029;BME280;6581;42.662;23.402;2023-05-10T01:56:16;95568.69;;;9.15;100.00
13029;BME280;6581;42.662;23.402;2023-05-10T01:58:46;95564.59;;;9.17;100.00
13029;BME280;6581;42.662;23.402;2023-05-10T02:01:16;95571.66;;;9.13;100.00
13029;BME280;6581;42.662;23.402;2023-05-10T02:03:47;95565.53;;;9.09;100.00
13029;BME280;6581;42.662;23.402;2023-05-10T02:06:18;95567.22;;;9.02;100.00
13029;BME280;6581;42.662;23.402;2023-05-10T02:08:47;95573.44;;;9.09;100.00
13029;BME280;6581;42.662;23.402;2023-05-10T02:11:17;95577.13;;;9.05;100.00
13029;BME280;6581;42.662;23.402;2023-05-10T02:13:48;95577.13;;;9.05;100.00
13029;BME280;6581;42.662;23.402;2023-05-10T02:16:16;95580.38;;;8.98;100.00
13029;BME280;6581;42.662;23.402;2023-05-10T02:18:47;95580.69;;;8.97;100.00
13029;BME280;6581;42.662;23.402;2023-05-10T02:21:15;95585.53;;;8.95;100.00
13029;BME280;6581;42.662;23.402;2023-05-10T02:23:43;95584.75;;;8.94;100.00
13029;BME280;6581;42.662;23.402;2023-05-10T02:26:12;95583.13;;;8.89;100.00
13029;BME280;6581;42.662;23.402;2023-05-10T02:28:42;95587.91;;;8.84;100.00
13029;BME280;6581;42.662;23.402;2023-05-10T02:31:10;95583.78;;;8.71;100.00
13029;BME280;6581;42.662;23.402;2023-05-10T02:33:38;95593.16;;;8.68;100.00
13029;BME280;6581;42.662;23.402;2023-05-10T02:36:09;95596.13;;;8.67;100.00
13029;BME280;6581;42.662;23.402;2023-05-10T02:38:37;95588.78;;;8.60;100.00
13029;BME280;6581;42.662;23.402;2023-05-10T02:41:05;95592.34;;;8.52;100.00
13029;BME280;6581;42.662;23.402;2023-05-10T02:43:35;95600.69;;;8.54;100.00
13029;BME280;6581;42.662;23.402;2023-05-10T02:46:03;95585.31;;;8.44;100.00
13029;BME280;6581;42.662;23.402;2023-05-10T02:48:30;95590.50;;;8.40;100.00
13029;BME280;6581;42.662;23.402;2023-05-10T02:51:05;95581.97;;;8.31;100.00
13029;BME280;6581;42.662;23.402;2023-05-10T02:53:36;95581.28;;;8.34;100.00
13029;BME280;6581;42.662;23.402;2023-05-10T02:56:10;95580.97;;;8.36;100.00
13029;BME280;6581;42.662;23.402;2023-05-10T02:58:39;95581.59;;;8.45;100.00
13029;BME280;6581;42.662;23.402;2023-05-10T03:01:07;95581.41;;;8.38;100.00
13029;BME280;6581;42.662;23.402;2023-05-10T03:03:34;95576.78;;;8.35;100.00
13029;BME280;6581;42.662;23.402;2023-05-10T03:06:02;95576.78;;;8.35;100.00
13029;BME280;6581;42.662;23.402;2023-05-10T03:08:29;95583.16;;;8.22;100.00
13029;BME280;6581;42.662;23.402;2023-05-10T03:14:04;95586.56;;;8.34;100.00
13029;BME280;6581;42.662;23.402;2023-05-10T03:16:39;95591.31;;;8.29;100.00
13029;BME280;6581;42.662;23.402;2023-05-10T03:19:20;95588.03;;;8.32;100.00
13029;BME280;6581;42.662;23.402;2023-05-10T03:21:52;95600.03;;;8.29;100.00
13029;BME280;6581;42.662;23.402;2023-05-10T03:24:21;95599.34;;;8.32;100.00
13029;BME280;6581;42.662;23.402;2023-05-10T03:26:53;95595.38;;;8.38;100.00
13029;BME280;6581;42.662;23.402;2023-05-10T03:29:23;95598.75;;;8.39;100.00
13029;BME280;6581;42.662;23.402;2023-05-10T03:31:52;95599.28;;;8.44;100.00
13029;BME280;6581;42.662;23.402;2023-05-10T03:34:23;95596.19;;;8.55;100.00
13029;BME280;6581;42.662;23.402;2023-05-10T03:36:51;95595.41;;;8.54;100.00
13029;BME280;6581;42.662;23.402;2023-05-10T03:39:18;95597.28;;;8.54;100.00
13029;BME280;6581;42.662;23.402;2023-05-10T03:41:52;95603.34;;;8.54;100.00
13029;BME280;6581;42.662;23.402;2023-05-10T03:44:19;95595.00;;;8.52;100.00
13029;BME280;6581;42.662;23.402;2023-05-10T03:46:46;95595.72;;;8.65;100.00
13029;BME280;6581;42.662;23.402;2023-05-10T03:49:14;95599.63;;;8.71;100.00
13029;BME280;6581;42.662;23.402;2023-05-10T03:51:41;95599.91;;;8.66;100.00
13029;BME280;6581;42.662;23.402;2023-05-10T03:54:08;95595.88;;;8.72;100.00
13029;BME280;6581;42.662;23.402;2023-05-10T03:56:35;95603.16;;;8.75;100.00
13029;BME280;6581;42.662;23.402;2023-05-10T03:59:04;95603.78;;;8.84;100.00
13029;BME280;6581;42.662;23.402;2023-05-10T04:01:33;95606.66;;;8.79;100.00
13029;BME280;6581;42.662;23.402;2023-05-10T04:04:00;95611.94;;;8.79;100.00
13029;BME280;6581;42.662;23.402;2023-05-10T04:06:28;95608.22;;;8.68;100.00
13029;BME280;6581;42.662;23.402;2023-05-10T04:08:55;95615.06;;;8.69;100.00
13029;BME280;6581;42.662;23.402;2023-05-10T04:11:25;95616.94;;;8.68;100.00
13029;BME280;6581;42.662;23.402;2023-05-10T04:13:53;95618.31;;;8.78;100.00
13029;BME280;6581;42.662;23.402;2023-05-10T04:16:22;95615.06;;;8.84;100.00
13029;BME280;6581;42.662;23.402;2023-05-10T04:18:49;95611.66;;;8.68;100.00
13029;BME280;6581;42.662;23.402;2023-05-10T04:21:16;95616.47;;;8.66;100.00
13029;BME280;6581;42.662;23.402;2023-05-10T04:23:43;95627.31;;;8.61;100.00
13029;BME280;6581;42.662;23.402;2023-05-10T04:26:34;95622.16;;;8.53;100.00
13029;BME280;6581;42.662;23.402;2023-05-10T04:29:01;95618.75;;;8.52;100.00
13029;BME280;6581;42.662;23.402;2023-05-10T04:31:30;95626.16;;;8.34;100.00
13029;BME280;6581;42.662;23.402;2023-05-10T04:33:57;95615.22;;;8.48;100.00
13029;BME280;6581;42.662;23.402;2023-05-10T04:36:24;95610.34;;;8.62;100.00
13029;BME280;6581;42.662;23.402;2023-05-10T04:38:51;95615.13;;;8.57;100.00
13029;BME280;6581;42.662;23.402;2023-05-10T04:41:18;95620.19;;;8.50;100.00
13029;BME280;6581;42.662;23.402;2023-05-10T04:43:46;95619.66;;;8.44;100.00
13029;BME280;6581;42.662;23.402;2023-05-10T04:46:14;95614.38;;;8.44;100.00
13029;BME280;6581;42.662;23.402;2023-05-10T04:49:08;95626.69;;;8.40;100.00
13029;BME280;6581;42.662;23.402;2023-05-10T04:51:35;95616.13;;;8.52;100.00
13029;BME280;6581;42.662;23.402;2023-05-10T04:54:03;95612.34;;;8.53;100.00
13029;BME280;6581;42.662;23.402;2023-05-10T04:56:30;95614.22;;;8.53;100.00
13029;BME280;6581;42.662;23.402;2023-05-10T04:58:57;95623.66;;;8.66;100.00
13029;BME280;6581;42.662;23.402;2023-05-10T05:01:25;95617.09;;;8.75;100.00
13029;BME280;6581;42.662;23.402;2023-05-10T05:03:52;95617.09;;;8.75;100.00
13029;BME280;6581;42.662;23.402;2023-05-10T05:06:20;95617.31;;;8.82;100.00
13029;BME280;6581;42.662;23.402;2023-05-10T05:08:47;95618.25;;;8.90;100.00
13029;BME280;6581;42.662;23.402;2023-05-10T05:11:15;95620.84;;;9.02;100.00
13029;BME280;6581;42.662;23.402;2023-05-10T05:13:43;95623.81;;;9.01;100.00
13029;BME280;6581;42.662;23.402;2023-05-10T05:16:10;95628.00;;;9.02;100.00
13029;BME280;6581;42.662;23.402;2023-05-10T05:18:37;95628.53;;;9.07;100.00
13029;BME280;6581;42.662;23.402;2023-05-10T05:21:13;95630.13;;;8.96;100.00
13029;BME280;6581;42.662;23.402;2023-05-10T05:23:42;95627.97;;;8.86;100.00
13029;BME280;6581;42.662;23.402;2023-05-10T05:26:09;95631.28;;;8.83;100.00
13029;BME280;6581;42.662;23.402;2023-05-10T05:28:36;95622.69;;;8.86;100.00
13029;BME280;6581;42.662;23.402;2023-05-10T05:31:04;95630.97;;;9.00;100.00
13029;BME280;6581;42.662;23.402;2023-05-10T05:33:31;95631.84;;;9.04;100.00
13029;BME280;6581;42.662;23.402;2023-05-10T05:36:00;95636.50;;;8.95;100.00
13029;BME280;6581;42.662;23.402;2023-05-10T05:38:27;95639.06;;;8.92;100.00
13029;BME280;6581;42.662;23.402;2023-05-10T05:40:56;95644.28;;;9.04;100.00
13029;BME280;6581;42.662;23.402;2023-05-10T05:43:23;95644.13;;;9.12;100.00
13029;BME280;6581;42.662;23.402;2023-05-10T05:45:52;95641.66;;;9.19;100.00
13029;BME280;6581;42.662;23.402;2023-05-10T05:48:19;95635.38;;;9.24;100.00
13029;BME280;6581;42.662;23.402;2023-05-10T05:50:46;95631.47;;;9.33;100.00
13029;BME280;6581;42.662;23.402;2023-05-10T05:53:13;95646.31;;;9.38;100.00
13029;BME280;6581;42.662;23.402;2023-05-10T05:55:50;95647.06;;;9.39;100.00
13029;BME280;6581;42.662;23.402;2023-05-10T05:58:19;95649.34;;;9.40;100.00
13029;BME280;6581;42.662;23.402;2023-05-10T06:00:46;95649.03;;;9.57;100.00
13029;BME280;6581;42.662;23.402;2023-05-10T06:03:13;95650.97;;;9.45;100.00
13029;BME280;6581;42.662;23.402;2023-05-10T06:05:41;95646.97;;;9.35;100.00
13029;BME280;6581;42.662;23.402;2023-05-10T06:08:08;95657.03;;;9.45;100.00
13029;BME280;6581;42.662;23.402;2023-05-10T06:10:35;95656.78;;;9.50;100.00
13029;BME280;6581;42.662;23.402;2023-05-10T06:13:02;95651.41;;;9.47;100.00
13029;BME280;6581;42.662;23.402;2023-05-10T06:15:30;95657.47;;;9.47;100.00
13029;BME280;6581;42.662;23.402;2023-05-10T06:17:58;95654.06;;;9.47;100.00
13029;BME280;6581;42.662;23.402;2023-05-10T06:20:25;95648.94;;;9.54;100.00
13029;BME280;6581;42.662;23.402;2023-05-10T06:22:52;95657.22;;;9.52;100.00
13029;BME280;6581;42.662;23.402;2023-05-10T06:25:19;95653.72;;;9.64;100.00
13029;BME280;6581;42.662;23.402;2023-05-10T06:28:11;95665.16;;;9.68;100.00
13029;BME280;6581;42.662;23.402;2023-05-10T06:30:39;95665.50;;;9.66;100.00
13029;BME280;6581;42.662;23.402;2023-05-10T06:33:08;95667.47;;;9.69;100.00
13029;BME280;6581;42.662;23.402;2023-05-10T06:35:36;95663.78;;;9.74;100.00
13029;BME280;6581;42.662;23.402;2023-05-10T06:38:02;95666.59;;;9.81;100.00
13029;BME280;6581;42.662;23.402;2023-05-10T06:40:29;95668.56;;;9.84;100.00
13029;BME280;6581;42.662;23.402;2023-05-10T06:42:57;95671.44;;;9.95;100.00
13029;BME280;6581;42.662;23.402;2023-05-10T06:45:24;95667.03;;;9.99;100.00
13029;BME280;6581;42.662;23.402;2023-05-10T06:47:52;95666.66;;;10.00;100.00
13029;BME280;6581;42.662;23.402;2023-05-10T06:50:19;95664.28;;;9.95;100.00
13029;BME280;6581;42.662;23.402;2023-05-10T06:52:47;95655.56;;;9.95;100.00
13029;BME280;6581;42.662;23.402;2023-05-10T06:55:14;95664.38;;;9.99;100.00
13029;BME280;6581;42.662;23.402;2023-05-10T06:57:41;95669.25;;;9.97;100.00
13029;BME280;6581;42.662;23.402;2023-05-10T07:00:08;95666.06;;;10.07;100.00
13029;BME280;6581;42.662;23.402;2023-05-10T07:02:36;95661.69;;;10.14;100.00
13029;BME280;6581;42.662;23.402;2023-05-10T07:05:05;95662.56;;;10.18;100.00
13029;BME280;6581;42.662;23.402;2023-05-10T07:07:33;95667.19;;;10.21;98.83
13029;BME280;6581;42.662;23.402;2023-05-10T07:10:00;95667.75;;;10.31;98.11
13029;BME280;6581;42.662;23.402;2023-05-10T07:12:29;95676.31;;;10.24;97.92
13029;BME280;6581;42.662;23.402;2023-05-10T07:14:57;95679.97;;;10.04;98.93
13029;BME280;6581;42.662;23.402;2023-05-10T07:17:24;95682.31;;;10.21;99.36
13029;BME280;6581;42.662;23.402;2023-05-10T07:19:51;95673.66;;;10.24;99.60
13029;BME280;6581;42.662;23.402;2023-05-10T07:22:19;95676.63;;;10.38;97.33
13029;BME280;6581;42.662;23.402;2023-05-10T07:24:47;95669.84;;;10.41;96.05
13029;BME280;6581;42.662;23.402;2023-05-10T07:27:14;95684.09;;;10.52;94.78
13029;BME280;6581;42.662;23.402;2023-05-10T07:29:41;95682.50;;;10.66;94.79
13029;BME280;6581;42.662;23.402;2023-05-10T07:32:08;95683.56;;;10.62;95.28
13029;BME280;6581;42.662;23.402;2023-05-10T07:34:35;95691.56;;;10.65;95.09
13029;BME280;6581;42.662;23.402;2023-05-10T07:37:03;95690.09;;;10.68;94.33
13029;BME280;6581;42.662;23.402;2023-05-10T07:39:33;95689.50;;;10.75;94.01
13029;BME280;6581;42.662;23.402;2023-05-10T07:42:00;95693.47;;;10.84;91.85
13029;BME280;6581;42.662;23.402;2023-05-10T07:44:28;95700.69;;;10.68;89.41
13029;BME280;6581;42.662;23.402;2023-05-10T07:46:55;95694.13;;;10.43;90.41
13029;BME280;6581;42.662;23.402;2023-05-10T07:49:22;95698.25;;;10.40;91.85
13029;BME280;6581;42.662;23.402;2023-05-10T07:51:50;95692.66;;;10.45;93.90
13029;BME280;6581;42.662;23.402;2023-05-10T07:54:17;95688.63;;;10.51;92.26
13029;BME280;6581;42.662;23.402;2023-05-10T07:56:46;95695.03;;;10.50;91.36
13029;BME280;6581;42.662;23.402;2023-05-10T07:59:15;95695.59;;;10.59;92.26
13029;BME280;6581;42.662;23.402;2023-05-10T08:01:44;95707.47;;;10.65;91.08
13029;BME280;6581;42.662;23.402;2023-05-10T08:04:11;95705.28;;;10.52;89.68
13029;BME280;6581;42.662;23.402;2023-05-10T08:06:39;95704.06;;;10.65;90.49
13029;BME280;6581;42.662;23.402;2023-05-10T08:09:09;95695.97;;;10.58;91.76
13029;BME280;6581;42.662;23.402;2023-05-10T08:11:36;95696.72;;;10.58;91.20
13029;BME280;6581;42.662;23.402;2023-05-10T08:14:04;95705.53;;;10.62;91.13
13029;BME280;6581;42.662;23.402;2023-05-10T08:16:31;95699.66;;;10.53;92.27
13029;BME280;6581;42.662;23.402;2023-05-10T08:19:00;95704.63;;;10.74;92.34
13029;BME280;6581;42.662;23.402;2023-05-10T08:21:27;95704.69;;;10.78;92.34
13029;BME280;6581;42.662;23.402;2023-05-10T08:23:57;95707.19;;;10.71;92.57
13029;BME280;6581;42.662;23.402;2023-05-10T08:26:24;95708.53;;;10.80;91.47
13029;BME280;6581;42.662;23.402;2023-05-10T08:28:52;95704.78;;;10.81;91.19
13029;BME280;6581;42.662;23.402;2023-05-10T08:31:20;95702.75;;;11.13;91.33
13029;BME280;6581;42.662;23.402;2023-05-10T08:33:47;95707.38;;;11.39;90.62
13029;BME280;6581;42.662;23.402;2023-05-10T08:36:14;95709.41;;;11.45;89.09
13029;BME280;6581;42.662;23.402;2023-05-10T08:38:45;95713.16;;;11.64;87.81
13029;BME280;6581;42.662;23.402;2023-05-10T08:41:13;95715.06;;;11.86;86.31
13029;BME280;6581;42.662;23.402;2023-05-10T08:43:40;95714.94;;;11.79;85.69
13029;BME280;6581;42.662;23.402;2023-05-10T08:46:14;95720.03;;;11.68;85.44
13029;BME280;6581;42.662;23.402;2023-05-10T08:48:44;95714.53;;;11.57;86.86
13029;BME280;6581;42.662;23.402;2023-05-10T08:51:13;95715.38;;;11.62;87.62
13029;BME280;6581;42.662;23.402;2023-05-10T08:53:45;95716.00;;;11.74;88.00
13029;BME280;6581;42.662;23.402;2023-05-10T08:56:12;95715.22;;;11.74;88.02
13029;BME280;6581;42.662;23.402;2023-05-10T08:58:41;95709.72;;;11.63;89.57
13029;BME280;6581;42.662;23.402;2023-05-10T09:01:08;95720.47;;;11.51;88.89
13029;BME280;6581;42.662;23.402;2023-05-10T09:03:38;95714.50;;;11.54;89.71
13029;BME280;6581;42.662;23.402;2023-05-10T09:06:07;95715.38;;;11.62;89.48
13029;BME280;6581;42.662;23.402;2023-05-10T09:08:34;95709.91;;;11.32;89.28
13029;BME280;6581;42.662;23.402;2023-05-10T09:11:03;95710.59;;;11.29;89.45
13029;BME280;6581;42.662;23.402;2023-05-10T09:13:30;95708.94;;;11.40;91.55
13029;BME280;6581;42.662;23.402;2023-05-10T09:15:57;95715.31;;;11.58;90.87
13029;BME280;6581;42.662;23.402;2023-05-10T09:18:25;95712.28;;;11.79;92.84
13029;BME280;6581;42.662;23.402;2023-05-10T09:20:52;95711.22;;;11.83;92.41
13029;BME280;6581;42.662;23.402;2023-05-10T09:23:20;95693.91;;;11.93;95.15
13029;BME280;6581;42.662;23.402;2023-05-10T09:25:47;95699.50;;;12.11;91.58
13029;BME280;6581;42.662;23.402;2023-05-10T09:28:14;95696.94;;;12.14;91.65
13029;BME280;6581;42.662;23.402;2023-05-10T09:30:42;95698.84;;;12.17;91.66
13029;BME280;6581;42.662;23.402;2023-05-10T09:33:09;95700.50;;;12.25;91.06
13029;BME280;6581;42.662;23.402;2023-05-10T09:35:36;95696.59;;;12.19;91.45
13029;BME280;6581;42.662;23.402;2023-05-10T09:38:06;95696.50;;;12.38;89.88
13029;BME280;6581;42.662;23.402;2023-05-10T09:40:35;95691.72;;;12.21;89.91
13029;BME280;6581;42.662;23.402;2023-05-10T09:43:03;95683.13;;;12.31;88.16
13029;BME280;6581;42.662;23.402;2023-05-10T09:45:32;95684.22;;;12.27;87.65
13029;BME280;6581;42.662;23.402;2023-05-10T09:48:01;95693.63;;;12.24;88.11
13029;BME280;6581;42.662;23.402;2023-05-10T09:50:29;95687.06;;;12.41;87.50
13029;BME280;6581;42.662;23.402;2023-05-10T09:52:58;95692.13;;;12.23;86.87
13029;BME280;6581;42.662;23.402;2023-05-10T09:55:37;95681.34;;;12.39;86.63
13029;BME280;6581;42.662;23.402;2023-05-10T09:58:06;95676.69;;;12.32;86.10
13029;BME280;6581;42.662;23.402;2023-05-10T10:00:37;95681.56;;;12.57;85.43
13029;BME280;6581;42.662;23.402;2023-05-10T10:03:04;95676.47;;;12.74;83.28
13029;BME280;6581;42.662;23.402;2023-05-10T10:05:33;95681.44;;;12.76;82.23
13029;BME280;6581;42.662;23.402;2023-05-10T10:08:01;95683.66;;;13.04;82.09
13029;BME280;6581;42.662;23.402;2023-05-10T10:10:29;95674.59;;;13.08;81.72
13029;BME280;6581;42.662;23.402;2023-05-10T10:12:57;95670.97;;;12.90;79.91
13029;BME280;6581;42.662;23.402;2023-05-10T10:15:26;95675.72;;;13.07;79.10
13029;BME280;6581;42.662;23.402;2023-05-10T10:17:54;95669.00;;;13.13;79.28
13029;BME280;6581;42.662;23.402;2023-05-10T10:20:22;95653.84;;;13.21;78.70
13029;BME280;6581;42.662;23.402;2023-05-10T10:22:50;95664.66;;;13.35;78.01
13029;BME280;6581;42.662;23.402;2023-05-10T10:25:19;95662.63;;;13.25;75.25
13029;BME280;6581;42.662;23.402;2023-05-10T10:27:59;95661.28;;;13.38;76.90
13029;BME280;6581;42.662;23.402;2023-05-10T10:30:36;95667.09;;;13.51;75.93
13029;BME280;6581;42.662;23.402;2023-05-10T10:33:33;95662.41;;;13.37;76.74
13029;BME280;6581;42.662;23.402;2023-05-10T10:36:04;95659.47;;;13.12;76.74
13029;BME280;6581;42.662;23.402;2023-05-10T10:41:29;95653.13;;;12.91;77.59
13029;BME280;6581;42.662;23.402;2023-05-10T10:44:22;95673.88;;;12.78;78.52
13029;BME280;6581;42.662;23.402;2023-05-10T10:47:03;95664.53;;;12.61;77.60
13029;BME280;6581;42.662;23.402;2023-05-10T10:49:38;95659.00;;;12.43;79.49
13029;BME280;6581;42.662;23.402;2023-05-10T10:52:24;95665.81;;;12.41;80.69
13029;BME280;6581;42.662;23.402;2023-05-10T10:54:58;95656.25;;;12.36;82.17
13029;BME280;6581;42.662;23.402;2023-05-10T10:57:27;95656.66;;;12.38;82.54
13029;BME280;6581;42.662;23.402;2023-05-10T11:00:21;95664.72;;;12.46;82.45
13029;BME280;6581;42.662;23.402;2023-05-10T11:02:52;95671.19;;;12.48;82.49
13029;BME280;6581;42.662;23.402;2023-05-10T11:05:36;95675.78;;;12.77;81.11
13029;BME280;6581;42.662;23.402;2023-05-10T11:08:18;95675.28;;;13.02;79.53
13029;BME280;6581;42.662;23.402;2023-05-10T11:10:51;95664.25;;;13.00;79.94
13029;BME280;6581;42.662;23.402;2023-05-10T11:13:28;95661.91;;;12.95;79.11
13029;BME280;6581;42.662;23.402;2023-05-10T11:15:56;95659.13;;;12.84;79.27
13029;BME280;6581;42.662;23.402;2023-05-10T11:18:57;95664.50;;;12.87;79.61
13029;BME280;6581;42.662;23.402;2023-05-10T11:21:25;95661.31;;;13.08;79.41
13029;BME280;6581;42.662;23.402;2023-05-10T11:23:54;95651.75;;;13.04;79.35
13029;BME280;6581;42.662;23.402;2023-05-10T11:26:23;95655.34;;;12.85;79.64
13029;BME280;6581;42.662;23.402;2023-05-10T11:28:53;95668.03;;;12.99;78.40
13029;BME280;6581;42.662;23.402;2023-05-10T11:31:22;95667.69;;;13.00;78.82
13029;BME280;6581;42.662;23.402;2023-05-10T11:33:53;95673.13;;;13.11;78.44
13029;BME280;6581;42.662;23.402;2023-05-10T11:36:24;95668.25;;;13.16;78.04
13029;BME280;6581;42.662;23.402;2023-05-10T11:38:52;95666.00;;;13.18;78.08
13029;BME280;6581;42.662;23.402;2023-05-10T11:41:20;95664.28;;;13.37;78.14
13029;BME280;6581;42.662;23.402;2023-05-10T11:43:49;95665.16;;;13.48;77.71
13029;BME280;6581;42.662;23.402;2023-05-10T11:46:19;95665.19;;;13.51;76.50
13029;BME280;6581;42.662;23.402;2023-05-10T11:48:49;95664.31;;;13.40;76.37
13029;BME280;6581;42.662;23.402;2023-05-10T11:51:22;95667.94;;;13.21;77.63
13029;BME280;6581;42.662;23.402;2023-05-10T11:53:50;95666.19;;;13.36;78.67
13029;BME280;6581;42.662;23.402;2023-05-10T11:56:17;95664.59;;;13.28;78.67
13029;BME280;6581;42.662;23.402;2023-05-10T11:58:44;95658.38;;;13.17;77.30
13029;BME280;6581;42.662;23.402;2023-05-10T12:01:13;95664.38;;;13.10;76.96
13029;BME280;6581;42.662;23.402;2023-05-10T12:04:04;95656.63;;;12.98;78.21
13029;BME280;6581;42.662;23.402;2023-05-10T12:06:37;95659.00;;;13.07;79.17
13029;BME280;6581;42.662;23.402;2023-05-10T12:09:07;95655.16;;;13.01;79.27
13029;BME280;6581;42.662;23.402;2023-05-10T12:11:37;95646.94;;;13.13;80.20
13029;BME280;6581;42.662;23.402;2023-05-10T12:14:05;95644.28;;;13.13;80.67
13029;BME280;6581;42.662;23.402;2023-05-10T12:16:32;95644.13;;;13.36;79.54
13029;BME280;6581;42.662;23.402;2023-05-10T12:19:00;95641.81;;;13.34;79.91
13029;BME280;6581;42.662;23.402;2023-05-10T12:21:28;95647.66;;;13.47;78.96
13029;BME280;6581;42.662;23.402;2023-05-10T12:24:24;95643.94;;;13.55;79.36
13029;BME280;6581;42.662;23.402;2023-05-10T12:26:51;95634.75;;;13.49;78.03
13029;BME280;6581;42.662;23.402;2023-05-10T12:29:18;95638.53;;;13.48;79.22
13029;BME280;6581;42.662;23.402;2023-05-10T12:31:53;95636.94;;;13.40;79.98
13029;BME280;6581;42.662;23.402;2023-05-10T12:34:25;95636.09;;;13.28;79.01
13029;BME280;6581;42.662;23.402;2023-05-10T12:36:53;95628.75;;;13.15;80.35
13029;BME280;6581;42.662;23.402;2023-05-10T12:39:22;95635.94;;;13.14;79.77
13029;BME280;6581;42.662;23.402;2023-05-10T12:41:50;95631.09;;;13.23;79.90
13029;BME280;6581;42.662;23.402;2023-05-10T12:44:18;95634.72;;;13.08;80.56
13029;BME280;6581;42.662;23.402;2023-05-10T12:46:45;95630.03;;;12.98;80.90
13029;BME280;6581;42.662;23.402;2023-05-10T12:49:12;95630.00;;;12.95;81.14
13029;BME280;6581;42.662;23.402;2023-05-10T12:51:39;95629.53;;;12.85;81.93
13029;BME280;6581;42.662;23.402;2023-05-10T12:54:06;95631.75;;;12.83;82.87
13029;BME280;6581;42.662;23.402;2023-05-10T12:56:35;95629.50;;;12.82;83.41
13029;BME280;6581;42.662;23.402;2023-05-10T12:59:02;95620.00;;;12.84;84.44
13029;BME280;6581;42.662;23.402;2023-05-10T13:01:29;95620.81;;;12.88;83.62
13029;BME280;6581;42.662;23.402;2023-05-10T13:03:57;95611.94;;;12.74;83.93
13029;BME280;6581;42.662;23.402;2023-05-10T13:06:25;95613.94;;;12.84;83.03
13029;BME280;6581;42.662;23.402;2023-05-10T13:08:52;95609.31;;;12.77;82.12
13029;BME280;6581;42.662;23.402;2023-05-10T13:11:19;95601.78;;;12.83;82.88
13029;BME280;6581;42.662;23.402;2023-05-10T13:13:48;95604.03;;;12.81;82.60
13029;BME280;6581;42.662;23.402;2023-05-10T13:16:15;95604.44;;;12.83;82.95
13029;BME280;6581;42.662;23.402;2023-05-10T13:18:42;95595.00;;;12.89;83.39
13029;BME280;6581;42.662;23.402;2023-05-10T13:21:09;95598.50;;;12.97;82.40
13029;BME280;6581;42.662;23.402;2023-05-10T13:23:37;95602.31;;;12.99;82.24